sensor_id;sensor_type;location;lat;lon;timestamp;P1;durP1;ratioP1;P2;durP2;ratioP2
38779;SDS011;29273;49.962;9.768;2024-01-06T00:01:30;5.47;;;3.08;;
38779;SDS011;29273;49.962;9.768;2024-01-06T00:03:55;5.15;;;3.05;;
38779;SDS011;29273;49.962;9.768;2024-01-06T00:06:21;4.57;;;3.10;;
38779;SDS011;29273;49.962;9.768;2024-01-06T00:08:47;3.85;;;2.92;;
38779;SDS011;29273;49.962;9.768;2024-01-06T00:13:44;3.40;;;2.38;;
38779;SDS011;29273;49.962;9.768;2024-01-06T00:16:09;3.60;;;2.63;;
38779;SDS011;29273;49.962;9.768;2024-01-06T00:18:35;4.25;;;3.08;;
38779;SDS011;29273;49.962;9.768;2024-01-06T00:21:00;6.68;;;3.35;;
38779;SDS011;29273;49.962;9.768;2024-01-06T00:23:26;4.53;;;3.30;;
38779;SDS011;29273;49.962;9.768;2024-01-06T00:25:52;5.90;;;3.47;;
38779;SDS011;29273;49.962;9.768;2024-01-06T00:28:17;4.82;;;3.05;;
38779;SDS011;29273;49.962;9.768;2024-01-06T00:30:43;3.40;;;2.83;;
38779;SDS011;29273;49.962;9.768;2024-01-06T00:33:08;3.45;;;2.70;;
38779;SDS011;29273;49.962;9.768;2024-01-06T00:35:34;5.20;;;3.33;;
38779;SDS011;29273;49.962;9.768;2024-01-06T00:37:59;4.13;;;3.25;;
38779;SDS011;29273;49.962;9.768;2024-01-06T00:40:25;4.20;;;2.95;;
38779;SDS011;29273;49.962;9.768;2024-01-06T00:42:51;3.90;;;2.78;;
38779;SDS011;29273;49.962;9.768;2024-01-06T00:45:16;3.50;;;2.72;;
38779;SDS011;29273;49.962;9.768;2024-01-06T00:47:42;3.88;;;2.60;;
38779;SDS011;29273;49.962;9.768;2024-01-06T00:50:08;3.22;;;2.78;;
38779;SDS011;29273;49.962;9.768;2024-01-06T00:52:33;4.57;;;2.38;;
38779;SDS011;29273;49.962;9.768;2024-01-06T00:54:59;4.10;;;2.83;;
38779;SDS011;29273;49.962;9.768;2024-01-06T00:57:24;4.18;;;2.72;;
38779;SDS011;29273;49.962;9.768;2024-01-06T00:59:50;3.47;;;2.45;;
38779;SDS011;29273;49.962;9.768;2024-01-06T01:02:16;3.08;;;2.50;;
38779;SDS011;29273;49.962;9.768;2024-01-06T01:04:41;4.18;;;2.50;;
38779;SDS011;29273;49.962;9.768;2024-01-06T01:07:07;4.20;;;2.72;;
38779;SDS011;29273;49.962;9.768;2024-01-06T01:09:32;4.00;;;2.92;;
38779;SDS011;29273;49.962;9.768;2024-01-06T01:11:58;3.67;;;2.65;;
38779;SDS011;29273;49.962;9.768;2024-01-06T01:14:23;4.35;;;2.70;;
38779;SDS011;29273;49.962;9.768;2024-01-06T01:16:49;3.92;;;2.67;;
38779;SDS011;29273;49.962;9.768;2024-01-06T01:19:14;5.15;;;2.97;;
38779;SDS011;29273;49.962;9.768;2024-01-06T01:21:39;4.13;;;3.10;;
38779;SDS011;29273;49.962;9.768;2024-01-06T01:24:05;4.15;;;2.90;;
38779;SDS011;29273;49.962;9.768;2024-01-06T01:26:30;4.47;;;3.10;;
38779;SDS011;29273;49.962;9.768;2024-01-06T01:28:56;3.75;;;2.72;;
38779;SDS011;29273;49.962;9.768;2024-01-06T01:31:21;4.63;;;3.08;;
38779;SDS011;29273;49.962;9.768;2024-01-06T01:33:47;4.95;;;3.00;;
38779;SDS011;29273;49.962;9.768;2024-01-06T01:36:12;4.57;;;3.13;;
38779;SDS011;29273;49.962;9.768;2024-01-06T01:38:38;5.15;;;3.38;;
38779;SDS011;29273;49.962;9.768;2024-01-06T01:41:03;3.85;;;2.90;;
38779;SDS011;29273;49.962;9.768;2024-01-06T01:43:29;4.78;;;2.90;;
38779;SDS011;29273;49.962;9.768;2024-01-06T01:45:55;3.78;;;2.85;;
38779;SDS011;29273;49.962;9.768;2024-01-06T01:48:21;4.13;;;2.88;;
38779;SDS011;29273;49.962;9.768;2024-01-06T01:50:47;3.90;;;2.67;;
38779;SDS011;29273;49.962;9.768;2024-01-06T01:53:13;4.85;;;2.88;;
38779;SDS011;29273;49.962;9.768;2024-01-06T01:55:40;5.38;;;2.80;;
38779;SDS011;29273;49.962;9.768;2024-01-06T01:58:07;3.95;;;2.90;;
38779;SDS011;29273;49.962;9.768;2024-01-06T02:00:34;3.70;;;2.88;;
38779;SDS011;29273;49.962;9.768;2024-01-06T02:02:59;4.00;;;3.13;;
38779;SDS011;29273;49.962;9.768;2024-01-06T02:05:26;4.28;;;2.90;;
38779;SDS011;29273;49.962;9.768;2024-01-06T02:07:52;4.82;;;2.90;;
38779;SDS011;29273;49.962;9.768;2024-01-06T02:10:17;4.03;;;2.85;;
38779;SDS011;29273;49.962;9.768;2024-01-06T02:12:43;4.03;;;2.88;;
38779;SDS011;29273;49.962;9.768;2024-01-06T02:15:08;4.53;;;2.72;;
38779;SDS011;29273;49.962;9.768;2024-01-06T02:17:34;4.65;;;2.95;;
38779;SDS011;29273;49.962;9.768;2024-01-06T02:20:00;4.35;;;3.13;;
38779;SDS011;29273;49.962;9.768;2024-01-06T02:22:25;3.95;;;3.15;;
38779;SDS011;29273;49.962;9.768;2024-01-06T02:24:51;4.38;;;3.15;;
38779;SDS011;29273;49.962;9.768;2024-01-06T02:27:16;4.40;;;2.92;;
38779;SDS011;29273;49.962;9.768;2024-01-06T02:29:42;3.53;;;2.58;;
38779;SDS011;29273;49.962;9.768;2024-01-06T02:32:07;3.47;;;2.80;;
38779;SDS011;29273;49.962;9.768;2024-01-06T02:34:32;4.43;;;2.97;;
38779;SDS011;29273;49.962;9.768;2024-01-06T02:36:59;3.65;;;2.72;;
38779;SDS011;29273;49.962;9.768;2024-01-06T02:39:25;4.10;;;2.72;;
38779;SDS011;29273;49.962;9.768;2024-01-06T02:41:51;3.83;;;2.83;;
38779;SDS011;29273;49.962;9.768;2024-01-06T02:44:16;3.60;;;2.45;;
38779;SDS011;29273;49.962;9.768;2024-01-06T02:46:42;3.65;;;3.10;;
38779;SDS011;29273;49.962;9.768;2024-01-06T02:49:07;4.53;;;2.80;;
38779;SDS011;29273;49.962;9.768;2024-01-06T02:51:33;4.90;;;3.05;;
38779;SDS011;29273;49.962;9.768;2024-01-06T02:53:59;5.40;;;3.20;;
38779;SDS011;29273;49.962;9.768;2024-01-06T02:56:24;3.63;;;2.95;;
38779;SDS011;29273;49.962;9.768;2024-01-06T02:58:50;3.40;;;2.60;;
38779;SDS011;29273;49.962;9.768;2024-01-06T03:01:15;7.15;;;2.70;;
38779;SDS011;29273;49.962;9.768;2024-01-06T03:03:42;3.60;;;2.78;;
38779;SDS011;29273;49.962;9.768;2024-01-06T03:06:08;3.22;;;2.70;;
38779;SDS011;29273;49.962;9.768;2024-01-06T03:08:33;3.45;;;2.65;;
38779;SDS011;29273;49.962;9.768;2024-01-06T03:11:00;4.95;;;2.58;;
38779;SDS011;29273;49.962;9.768;2024-01-06T03:13:26;4.25;;;2.70;;
38779;SDS011;29273;49.962;9.768;2024-01-06T03:15:51;3.05;;;2.28;;
38779;SDS011;29273;49.962;9.768;2024-01-06T03:18:17;3.20;;;2.40;;
38779;SDS011;29273;49.962;9.768;2024-01-06T03:20:42;3.78;;;2.30;;
38779;SDS011;29273;49.962;9.768;2024-01-06T03:23:08;2.92;;;2.40;;
38779;SDS011;29273;49.962;9.768;2024-01-06T03:25:33;2.85;;;2.25;;
38779;SDS011;29273;49.962;9.768;2024-01-06T03:27:59;3.83;;;2.40;;
38779;SDS011;29273;49.962;9.768;2024-01-06T03:30:24;4.13;;;2.40;;
38779;SDS011;29273;49.962;9.768;2024-01-06T03:32:50;3.35;;;2.10;;
38779;SDS011;29273;49.962;9.768;2024-01-06T03:35:15;3.08;;;2.20;;
38779;SDS011;29273;49.962;9.768;2024-01-06T03:37:40;2.15;;;1.83;;
38779;SDS011;29273;49.962;9.768;2024-01-06T03:40:06;4.65;;;1.98;;
38779;SDS011;29273;49.962;9.768;2024-01-06T03:42:32;4.07;;;2.22;;
38779;SDS011;29273;49.962;9.768;2024-01-06T03:44:58;2.72;;;2.17;;
38779;SDS011;29273;49.962;9.768;2024-01-06T03:47:23;2.80;;;2.17;;
38779;SDS011;29273;49.962;9.768;2024-01-06T03:49:49;2.63;;;2.00;;
38779;SDS011;29273;49.962;9.768;2024-01-06T03:52:14;2.92;;;2.30;;
38779;SDS011;29273;49.962;9.768;2024-01-06T03:58:46;2.42;;;2.00;;
38779;SDS011;29273;49.962;9.768;2024-01-06T04:01:11;3.40;;;2.10;;
38779;SDS011;29273;49.962;9.768;2024-01-06T04:03:37;2.22;;;2.03;;
38779;SDS011;29273;49.962;9.768;2024-01-06T04:06:05;2.63;;;2.20;;
38779;SDS011;29273;49.962;9.768;2024-01-06T04:08:31;2.55;;;2.35;;
38779;SDS011;29273;49.962;9.768;2024-01-06T04:10:56;5.00;;;2.67;;
38779;SDS011;29273;49.962;9.768;2024-01-06T04:13:22;3.25;;;2.53;;
38779;SDS011;29273;49.962;9.768;2024-01-06T04:15:47;2.88;;;2.28;;
38779;SDS011;29273;49.962;9.768;2024-01-06T04:18:12;3.03;;;2.40;;
38779;SDS011;29273;49.962;9.768;2024-01-06T04:20:38;2.97;;;2.40;;
38779;SDS011;29273;49.962;9.768;2024-01-06T04:23:03;2.78;;;2.40;;
38779;SDS011;29273;49.962;9.768;2024-01-06T04:25:29;2.88;;;2.30;;
38779;SDS011;29273;49.962;9.768;2024-01-06T04:27:54;2.85;;;2.28;;
38779;SDS011;29273;49.962;9.768;2024-01-06T04:30:20;3.17;;;2.50;;
38779;SDS011;29273;49.962;9.768;2024-01-06T04:32:45;3.00;;;2.35;;
38779;SDS011;29273;49.962;9.768;2024-01-06T04:35:13;2.33;;;2.13;;
38779;SDS011;29273;49.962;9.768;2024-01-06T04:37:39;3.13;;;2.38;;
38779;SDS011;29273;49.962;9.768;2024-01-06T04:40:04;3.42;;;2.30;;
38779;SDS011;29273;49.962;9.768;2024-01-06T04:42:30;2.60;;;2.20;;
38779;SDS011;29273;49.962;9.768;2024-01-06T04:44:56;2.72;;;2.38;;
38779;SDS011;29273;49.962;9.768;2024-01-06T04:47:21;3.13;;;2.45;;
38779;SDS011;29273;49.962;9.768;2024-01-06T04:49:47;2.78;;;2.03;;
38779;SDS011;29273;49.962;9.768;2024-01-06T04:52:12;2.40;;;2.20;;
38779;SDS011;29273;49.962;9.768;2024-01-06T04:54:38;2.40;;;2.20;;
38779;SDS011;29273;49.962;9.768;2024-01-06T04:57:03;2.78;;;2.58;;
38779;SDS011;29273;49.962;9.768;2024-01-06T04:59:29;2.67;;;2.33;;
38779;SDS011;29273;49.962;9.768;2024-01-06T05:01:55;3.53;;;2.58;;
38779;SDS011;29273;49.962;9.768;2024-01-06T05:04:23;2.65;;;2.20;;
38779;SDS011;29273;49.962;9.768;2024-01-06T05:06:49;3.60;;;2.72;;
38779;SDS011;29273;49.962;9.768;2024-01-06T05:09:16;3.05;;;2.30;;
38779;SDS011;29273;49.962;9.768;2024-01-06T05:11:45;2.78;;;2.30;;
38779;SDS011;29273;49.962;9.768;2024-01-06T05:14:11;3.40;;;2.33;;
38779;SDS011;29273;49.962;9.768;2024-01-06T05:16:37;3.13;;;2.60;;
38779;SDS011;29273;49.962;9.768;2024-01-06T05:19:02;2.45;;;2.20;;
38779;SDS011;29273;49.962;9.768;2024-01-06T05:21:28;2.50;;;2.28;;
38779;SDS011;29273;49.962;9.768;2024-01-06T05:23:54;2.75;;;2.38;;
38779;SDS011;29273;49.962;9.768;2024-01-06T05:26:20;2.78;;;2.47;;
38779;SDS011;29273;49.962;9.768;2024-01-06T05:28:45;3.58;;;2.58;;
38779;SDS011;29273;49.962;9.768;2024-01-06T05:31:11;2.97;;;2.60;;
38779;SDS011;29273;49.962;9.768;2024-01-06T05:33:36;2.90;;;2.30;;
38779;SDS011;29273;49.962;9.768;2024-01-06T05:36:02;2.22;;;2.03;;
38779;SDS011;29273;49.962;9.768;2024-01-06T05:38:27;3.22;;;2.13;;
38779;SDS011;29273;49.962;9.768;2024-01-06T05:40:53;3.88;;;2.08;;
38779;SDS011;29273;49.962;9.768;2024-01-06T05:43:18;2.90;;;2.38;;
38779;SDS011;29273;49.962;9.768;2024-01-06T05:45:43;2.20;;;2.00;;
38779;SDS011;29273;49.962;9.768;2024-01-06T05:48:10;2.78;;;2.42;;
38779;SDS011;29273;49.962;9.768;2024-01-06T05:50:39;2.65;;;2.28;;
38779;SDS011;29273;49.962;9.768;2024-01-06T05:53:05;3.10;;;2.47;;
38779;SDS011;29273;49.962;9.768;2024-01-06T05:55:30;2.78;;;2.20;;
38779;SDS011;29273;49.962;9.768;2024-01-06T05:57:56;4.45;;;2.35;;
38779;SDS011;29273;49.962;9.768;2024-01-06T06:00:21;2.78;;;2.10;;
38779;SDS011;29273;49.962;9.768;2024-01-06T06:02:47;3.05;;;2.40;;
38779;SDS011;29273;49.962;9.768;2024-01-06T06:05:12;3.22;;;2.60;;
38779;SDS011;29273;49.962;9.768;2024-01-06T06:07:38;3.20;;;2.70;;
38779;SDS011;29273;49.962;9.768;2024-01-06T06:10:05;2.70;;;2.45;;
38779;SDS011;29273;49.962;9.768;2024-01-06T06:12:36;3.20;;;2.90;;
38779;SDS011;29273;49.962;9.768;2024-01-06T06:15:02;2.78;;;2.17;;
38779;SDS011;29273;49.962;9.768;2024-01-06T06:17:29;2.88;;;2.58;;
38779;SDS011;29273;49.962;9.768;2024-01-06T06:19:56;5.65;;;2.60;;
38779;SDS011;29273;49.962;9.768;2024-01-06T06:22:22;2.72;;;2.50;;
38779;SDS011;29273;49.962;9.768;2024-01-06T06:24:48;3.03;;;2.30;;
38779;SDS011;29273;49.962;9.768;2024-01-06T06:27:14;2.63;;;2.40;;
38779;SDS011;29273;49.962;9.768;2024-01-06T06:29:39;3.47;;;2.80;;
38779;SDS011;29273;49.962;9.768;2024-01-06T06:32:05;2.63;;;2.20;;
38779;SDS011;29273;49.962;9.768;2024-01-06T06:34:30;3.22;;;2.63;;
38779;SDS011;29273;49.962;9.768;2024-01-06T06:36:56;2.90;;;2.60;;
38779;SDS011;29273;49.962;9.768;2024-01-06T06:39:21;2.92;;;2.58;;
38779;SDS011;29273;49.962;9.768;2024-01-06T06:41:47;3.25;;;2.53;;
38779;SDS011;29273;49.962;9.768;2024-01-06T06:44:12;4.18;;;2.88;;
38779;SDS011;29273;49.962;9.768;2024-01-06T06:46:38;3.55;;;3.00;;
38779;SDS011;29273;49.962;9.768;2024-01-06T06:49:03;4.07;;;3.22;;
38779;SDS011;29273;49.962;9.768;2024-01-06T06:51:29;3.97;;;3.00;;
38779;SDS011;29273;49.962;9.768;2024-01-06T06:53:55;3.88;;;3.03;;
38779;SDS011;29273;49.962;9.768;2024-01-06T06:56:21;3.45;;;2.70;;
38779;SDS011;29273;49.962;9.768;2024-01-06T06:58:47;4.57;;;2.80;;
38779;SDS011;29273;49.962;9.768;2024-01-06T07:01:16;3.47;;;2.97;;
38779;SDS011;29273;49.962;9.768;2024-01-06T07:03:41;3.40;;;2.63;;
38779;SDS011;29273;49.962;9.768;2024-01-06T07:06:07;3.72;;;2.80;;
38779;SDS011;29273;49.962;9.768;2024-01-06T07:08:32;2.97;;;2.50;;
38779;SDS011;29273;49.962;9.768;2024-01-06T07:10:58;3.75;;;2.30;;
38779;SDS011;29273;49.962;9.768;2024-01-06T07:13:23;3.47;;;3.00;;
38779;SDS011;29273;49.962;9.768;2024-01-06T07:15:49;2.70;;;2.40;;
38779;SDS011;29273;49.962;9.768;2024-01-06T07:18:14;2.85;;;2.55;;
38779;SDS011;29273;49.962;9.768;2024-01-06T07:20:40;3.38;;;2.83;;
38779;SDS011;29273;49.962;9.768;2024-01-06T07:23:05;3.53;;;2.80;;
38779;SDS011;29273;49.962;9.768;2024-01-06T07:25:30;2.50;;;2.20;;
38779;SDS011;29273;49.962;9.768;2024-01-06T07:27:56;2.75;;;2.30;;
38779;SDS011;29273;49.962;9.768;2024-01-06T07:30:21;2.60;;;2.40;;
38779;SDS011;29273;49.962;9.768;2024-01-06T07:32:47;3.00;;;2.55;;
38779;SDS011;29273;49.962;9.768;2024-01-06T07:35:14;2.20;;;2.00;;
38779;SDS011;29273;49.962;9.768;2024-01-06T07:37:41;2.80;;;2.17;;
38779;SDS011;29273;49.962;9.768;2024-01-06T07:40:06;2.30;;;2.10;;
38779;SDS011;29273;49.962;9.768;2024-01-06T07:42:32;2.33;;;2.13;;
38779;SDS011;29273;49.962;9.768;2024-01-06T07:44:58;2.67;;;2.10;;
38779;SDS011;29273;49.962;9.768;2024-01-06T07:47:23;2.28;;;2.00;;
38779;SDS011;29273;49.962;9.768;2024-01-06T07:49:49;2.90;;;2.05;;
38779;SDS011;29273;49.962;9.768;2024-01-06T07:52:15;2.55;;;2.08;;
38779;SDS011;29273;49.962;9.768;2024-01-06T07:54:40;2.70;;;2.08;;
38779;SDS011;29273;49.962;9.768;2024-01-06T07:57:06;3.00;;;2.30;;
38779;SDS011;29273;49.962;9.768;2024-01-06T07:59:31;3.05;;;1.98;;
38779;SDS011;29273;49.962;9.768;2024-01-06T08:01:57;3.17;;;2.53;;
38779;SDS011;29273;49.962;9.768;2024-01-06T08:04:23;2.67;;;2.40;;
38779;SDS011;29273;49.962;9.768;2024-01-06T08:06:48;3.08;;;2.60;;
38779;SDS011;29273;49.962;9.768;2024-01-06T08:09:14;3.35;;;2.83;;
38779;SDS011;29273;49.962;9.768;2024-01-06T08:11:39;3.75;;;2.25;;
38779;SDS011;29273;49.962;9.768;2024-01-06T08:14:05;2.60;;;2.40;;
38779;SDS011;29273;49.962;9.768;2024-01-06T08:16:30;3.13;;;2.67;;
38779;SDS011;29273;49.962;9.768;2024-01-06T08:18:57;3.10;;;2.67;;
38779;SDS011;29273;49.962;9.768;2024-01-06T08:21:22;3.22;;;2.58;;
38779;SDS011;29273;49.962;9.768;2024-01-06T08:23:48;3.80;;;2.58;;
38779;SDS011;29273;49.962;9.768;2024-01-06T08:26:13;3.40;;;2.83;;
38779;SDS011;29273;49.962;9.768;2024-01-06T08:28:39;3.38;;;2.83;;
38779;SDS011;29273;49.962;9.768;2024-01-06T08:31:04;2.92;;;2.60;;
38779;SDS011;29273;49.962;9.768;2024-01-06T08:33:30;3.10;;;2.65;;
38779;SDS011;29273;49.962;9.768;2024-01-06T08:35:55;2.65;;;2.42;;
38779;SDS011;29273;49.962;9.768;2024-01-06T08:38:21;3.72;;;2.97;;
38779;SDS011;29273;49.962;9.768;2024-01-06T08:40:47;3.20;;;2.75;;
38779;SDS011;29273;49.962;9.768;2024-01-06T08:43:15;3.08;;;2.75;;
38779;SDS011;29273;49.962;9.768;2024-01-06T08:45:41;3.70;;;3.10;;
38779;SDS011;29273;49.962;9.768;2024-01-06T08:48:06;4.22;;;3.28;;
38779;SDS011;29273;49.962;9.768;2024-01-06T08:50:32;3.90;;;3.33;;
38779;SDS011;29273;49.962;9.768;2024-01-06T08:52:57;4.10;;;3.65;;
38779;SDS011;29273;49.962;9.768;2024-01-06T08:55:23;4.95;;;3.35;;
38779;SDS011;29273;49.962;9.768;2024-01-06T08:57:48;4.07;;;3.45;;
38779;SDS011;29273;49.962;9.768;2024-01-06T09:00:14;4.78;;;3.70;;
38779;SDS011;29273;49.962;9.768;2024-01-06T09:02:39;3.95;;;3.30;;
38779;SDS011;29273;49.962;9.768;2024-01-06T09:05:05;4.47;;;3.63;;
38779;SDS011;29273;49.962;9.768;2024-01-06T09:07:31;4.45;;;3.83;;
38779;SDS011;29273;49.962;9.768;2024-01-06T09:09:56;4.25;;;3.53;;
38779;SDS011;29273;49.962;9.768;2024-01-06T09:12:21;4.32;;;3.65;;
38779;SDS011;29273;49.962;9.768;2024-01-06T09:14:47;4.55;;;3.65;;
38779;SDS011;29273;49.962;9.768;2024-01-06T09:17:13;4.35;;;3.67;;
38779;SDS011;29273;49.962;9.768;2024-01-06T09:19:38;4.38;;;3.55;;
38779;SDS011;29273;49.962;9.768;2024-01-06T09:22:04;5.40;;;4.47;;
38779;SDS011;29273;49.962;9.768;2024-01-06T09:24:29;7.63;;;5.25;;
38779;SDS011;29273;49.962;9.768;2024-01-06T09:26:55;6.93;;;5.07;;
38779;SDS011;29273;49.962;9.768;2024-01-06T09:29:20;7.10;;;5.15;;
38779;SDS011;29273;49.962;9.768;2024-01-06T09:31:46;6.95;;;5.13;;
38779;SDS011;29273;49.962;9.768;2024-01-06T09:34:12;6.60;;;5.07;;
38779;SDS011;29273;49.962;9.768;2024-01-06T09:36:37;7.45;;;5.63;;
38779;SDS011;29273;49.962;9.768;2024-01-06T09:39:03;6.55;;;5.40;;
38779;SDS011;29273;49.962;9.768;2024-01-06T09:41:29;6.97;;;5.20;;
38779;SDS011;29273;49.962;9.768;2024-01-06T09:43:56;7.68;;;5.32;;
38779;SDS011;29273;49.962;9.768;2024-01-06T09:46:25;5.82;;;4.93;;
38779;SDS011;29273;49.962;9.768;2024-01-06T09:48:57;7.20;;;5.18;;
38779;SDS011;29273;49.962;9.768;2024-01-06T09:51:23;6.32;;;5.07;;
38779;SDS011;29273;49.962;9.768;2024-01-06T09:53:56;6.97;;;4.75;;
38779;SDS011;29273;49.962;9.768;2024-01-06T09:56:22;4.72;;;4.05;;
38779;SDS011;29273;49.962;9.768;2024-01-06T09:58:49;5.38;;;4.20;;
38779;SDS011;29273;49.962;9.768;2024-01-06T10:01:15;5.60;;;4.53;;
38779;SDS011;29273;49.962;9.768;2024-01-06T10:03:42;4.50;;;3.72;;
38779;SDS011;29273;49.962;9.768;2024-01-06T10:06:08;4.53;;;3.55;;
38779;SDS011;29273;49.962;9.768;2024-01-06T10:08:35;4.07;;;3.67;;
38779;SDS011;29273;49.962;9.768;2024-01-06T10:11:00;5.00;;;3.63;;
38779;SDS011;29273;49.962;9.768;2024-01-06T10:13:26;4.65;;;3.60;;
38779;SDS011;29273;49.962;9.768;2024-01-06T10:15:55;4.68;;;3.63;;
38779;SDS011;29273;49.962;9.768;2024-01-06T10:18:21;4.32;;;3.90;;
38779;SDS011;29273;49.962;9.768;2024-01-06T10:20:47;6.32;;;4.15;;
38779;SDS011;29273;49.962;9.768;2024-01-06T10:23:12;5.15;;;4.20;;
38779;SDS011;29273;49.962;9.768;2024-01-06T10:25:38;5.85;;;4.20;;
38779;SDS011;29273;49.962;9.768;2024-01-06T10:28:04;4.82;;;4.32;;
38779;SDS011;29273;49.962;9.768;2024-01-06T10:30:30;5.18;;;4.22;;
38779;SDS011;29273;49.962;9.768;2024-01-06T10:32:55;5.22;;;4.38;;
38779;SDS011;29273;49.962;9.768;2024-01-06T10:35:21;5.60;;;4.40;;
38779;SDS011;29273;49.962;9.768;2024-01-06T10:37:47;6.05;;;4.82;;
38779;SDS011;29273;49.962;9.768;2024-01-06T10:40:13;6.00;;;4.55;;
38779;SDS011;29273;49.962;9.768;2024-01-06T10:42:43;5.53;;;4.60;;
38779;SDS011;29273;49.962;9.768;2024-01-06T10:45:10;5.93;;;4.55;;
38779;SDS011;29273;49.962;9.768;2024-01-06T10:47:43;4.20;;;3.58;;
38779;SDS011;29273;49.962;9.768;2024-01-06T10:50:09;4.45;;;3.53;;
38779;SDS011;29273;49.962;9.768;2024-01-06T10:52:35;4.40;;;3.40;;
38779;SDS011;29273;49.962;9.768;2024-01-06T10:55:02;4.75;;;3.72;;
38779;SDS011;29273;49.962;9.768;2024-01-06T10:57:29;5.78;;;3.40;;
38779;SDS011;29273;49.962;9.768;2024-01-06T10:59:58;4.28;;;3.33;;
38779;SDS011;29273;49.962;9.768;2024-01-06T11:02:25;3.63;;;2.90;;
38779;SDS011;29273;49.962;9.768;2024-01-06T11:04:51;4.43;;;3.22;;
38779;SDS011;29273;49.962;9.768;2024-01-06T11:07:18;5.22;;;3.72;;
38779;SDS011;29273;49.962;9.768;2024-01-06T11:10:05;4.05;;;3.30;;
38779;SDS011;29273;49.962;9.768;2024-01-06T11:12:32;3.53;;;3.10;;
38779;SDS011;29273;49.962;9.768;2024-01-06T11:14:58;4.90;;;3.47;;
38779;SDS011;29273;49.962;9.768;2024-01-06T11:20:19;4.93;;;3.17;;
38779;SDS011;29273;49.962;9.768;2024-01-06T11:22:45;5.00;;;3.60;;
38779;SDS011;29273;49.962;9.768;2024-01-06T11:25:14;5.78;;;4.28;;
38779;SDS011;29273;49.962;9.768;2024-01-06T11:27:42;4.88;;;3.72;;
38779;SDS011;29273;49.962;9.768;2024-01-06T11:30:18;4.57;;;3.88;;
38779;SDS011;29273;49.962;9.768;2024-01-06T11:32:51;4.85;;;3.70;;
38779;SDS011;29273;49.962;9.768;2024-01-06T11:35:19;5.32;;;3.85;;
38779;SDS011;29273;49.962;9.768;2024-01-06T11:42:46;4.80;;;3.28;;
38779;SDS011;29273;49.962;9.768;2024-01-06T11:45:12;4.78;;;3.30;;
38779;SDS011;29273;49.962;9.768;2024-01-06T11:47:39;5.03;;;3.60;;
38779;SDS011;29273;49.962;9.768;2024-01-06T11:50:04;4.68;;;3.50;;
38779;SDS011;29273;49.962;9.768;2024-01-06T11:52:34;4.03;;;3.30;;
38779;SDS011;29273;49.962;9.768;2024-01-06T11:55:00;4.25;;;3.22;;
38779;SDS011;29273;49.962;9.768;2024-01-06T11:57:26;4.22;;;3.33;;
38779;SDS011;29273;49.962;9.768;2024-01-06T11:59:52;4.40;;;3.20;;
38779;SDS011;29273;49.962;9.768;2024-01-06T12:02:18;4.13;;;3.13;;
38779;SDS011;29273;49.962;9.768;2024-01-06T12:04:51;3.33;;;2.80;;
38779;SDS011;29273;49.962;9.768;2024-01-06T12:07:21;3.80;;;3.05;;
38779;SDS011;29273;49.962;9.768;2024-01-06T12:10:07;3.83;;;2.70;;
38779;SDS011;29273;49.962;9.768;2024-01-06T12:12:33;3.15;;;2.53;;
38779;SDS011;29273;49.962;9.768;2024-01-06T12:14:59;3.78;;;2.65;;
38779;SDS011;29273;49.962;9.768;2024-01-06T12:17:27;6.63;;;3.05;;
38779;SDS011;29273;49.962;9.768;2024-01-06T12:19:54;3.42;;;2.78;;
38779;SDS011;29273;49.962;9.768;2024-01-06T12:22:19;4.05;;;2.80;;
38779;SDS011;29273;49.962;9.768;2024-01-06T12:24:48;3.33;;;2.65;;
38779;SDS011;29273;49.962;9.768;2024-01-06T12:27:14;3.13;;;2.47;;
38779;SDS011;29273;49.962;9.768;2024-01-06T12:29:42;4.32;;;2.80;;
38779;SDS011;29273;49.962;9.768;2024-01-06T12:32:10;3.22;;;2.80;;
38779;SDS011;29273;49.962;9.768;2024-01-06T12:34:38;3.70;;;2.22;;
38779;SDS011;29273;49.962;9.768;2024-01-06T12:37:04;3.20;;;2.70;;
38779;SDS011;29273;49.962;9.768;2024-01-06T12:39:30;3.10;;;2.30;;
38779;SDS011;29273;49.962;9.768;2024-01-06T12:41:56;2.78;;;1.88;;
38779;SDS011;29273;49.962;9.768;2024-01-06T12:44:22;3.33;;;2.25;;
38779;SDS011;29273;49.962;9.768;2024-01-06T12:46:48;2.88;;;2.30;;
38779;SDS011;29273;49.962;9.768;2024-01-06T12:49:14;3.38;;;2.63;;
38779;SDS011;29273;49.962;9.768;2024-01-06T12:51:40;3.70;;;2.55;;
38779;SDS011;29273;49.962;9.768;2024-01-06T12:54:05;3.45;;;2.85;;
38779;SDS011;29273;49.962;9.768;2024-01-06T12:56:31;3.70;;;2.70;;
38779;SDS011;29273;49.962;9.768;2024-01-06T12:58:56;3.50;;;2.75;;
38779;SDS011;29273;49.962;9.768;2024-01-06T13:01:22;3.97;;;3.10;;
38779;SDS011;29273;49.962;9.768;2024-01-06T13:03:47;3.45;;;2.70;;
38779;SDS011;29273;49.962;9.768;2024-01-06T13:06:13;3.40;;;2.70;;
38779;SDS011;29273;49.962;9.768;2024-01-06T13:08:41;3.78;;;2.90;;
38779;SDS011;29273;49.962;9.768;2024-01-06T13:11:07;3.10;;;2.58;;
38779;SDS011;29273;49.962;9.768;2024-01-06T13:13:33;3.22;;;2.38;;
38779;SDS011;29273;49.962;9.768;2024-01-06T13:15:59;3.70;;;2.42;;
38779;SDS011;29273;49.962;9.768;2024-01-06T13:18:26;4.30;;;2.50;;
38779;SDS011;29273;49.962;9.768;2024-01-06T13:20:53;3.97;;;2.47;;
38779;SDS011;29273;49.962;9.768;2024-01-06T13:23:19;3.03;;;2.72;;
38779;SDS011;29273;49.962;9.768;2024-01-06T13:25:44;3.08;;;2.55;;
38779;SDS011;29273;49.962;9.768;2024-01-06T13:28:10;4.18;;;3.13;;
38779;SDS011;29273;49.962;9.768;2024-01-06T13:30:37;3.10;;;2.50;;
38779;SDS011;29273;49.962;9.768;2024-01-06T13:33:04;3.83;;;2.67;;
38779;SDS011;29273;49.962;9.768;2024-01-06T13:35:30;3.75;;;2.70;;
38779;SDS011;29273;49.962;9.768;2024-01-06T13:37:56;4.75;;;3.13;;
38779;SDS011;29273;49.962;9.768;2024-01-06T13:40:22;4.68;;;3.28;;
38779;SDS011;29273;49.962;9.768;2024-01-06T13:42:48;3.28;;;2.65;;
38779;SDS011;29273;49.962;9.768;2024-01-06T13:45:16;4.20;;;2.60;;
38779;SDS011;29273;49.962;9.768;2024-01-06T13:47:42;3.25;;;2.58;;
38779;SDS011;29273;49.962;9.768;2024-01-06T13:50:12;3.45;;;2.53;;
38779;SDS011;29273;49.962;9.768;2024-01-06T13:52:39;3.95;;;2.50;;
38779;SDS011;29273;49.962;9.768;2024-01-06T13:55:05;2.78;;;2.15;;
38779;SDS011;29273;49.962;9.768;2024-01-06T13:57:31;3.17;;;2.40;;
38779;SDS011;29273;49.962;9.768;2024-01-06T13:59:57;4.13;;;2.40;;
38779;SDS011;29273;49.962;9.768;2024-01-06T14:02:23;3.35;;;2.38;;
38779;SDS011;29273;49.962;9.768;2024-01-06T14:04:49;2.63;;;2.00;;
38779;SDS011;29273;49.962;9.768;2024-01-06T14:07:16;2.92;;;2.15;;
38779;SDS011;29273;49.962;9.768;2024-01-06T14:09:44;3.17;;;1.88;;
38779;SDS011;29273;49.962;9.768;2024-01-06T14:12:10;3.60;;;2.03;;
38779;SDS011;29273;49.962;9.768;2024-01-06T14:14:36;3.60;;;2.50;;
38779;SDS011;29273;49.962;9.768;2024-01-06T14:17:02;2.67;;;2.17;;
38779;SDS011;29273;49.962;9.768;2024-01-06T14:19:27;2.20;;;1.90;;
38779;SDS011;29273;49.962;9.768;2024-01-06T14:21:53;3.78;;;2.38;;
38779;SDS011;29273;49.962;9.768;2024-01-06T14:24:18;3.20;;;2.35;;
38779;SDS011;29273;49.962;9.768;2024-01-06T14:26:54;3.08;;;2.40;;
38779;SDS011;29273;49.962;9.768;2024-01-06T14:29:21;3.17;;;2.65;;
38779;SDS011;29273;49.962;9.768;2024-01-06T14:31:46;2.90;;;2.40;;
38779;SDS011;29273;49.962;9.768;2024-01-06T14:34:13;7.10;;;2.70;;
38779;SDS011;29273;49.962;9.768;2024-01-06T14:36:39;4.43;;;2.63;;
38779;SDS011;29273;49.962;9.768;2024-01-06T14:39:13;2.78;;;2.17;;
38779;SDS011;29273;49.962;9.768;2024-01-06T14:41:39;3.42;;;2.40;;
38779;SDS011;29273;49.962;9.768;2024-01-06T14:44:05;3.88;;;2.40;;
38779;SDS011;29273;49.962;9.768;2024-01-06T14:46:30;3.70;;;2.35;;
38779;SDS011;29273;49.962;9.768;2024-01-06T14:48:57;3.33;;;2.42;;
38779;SDS011;29273;49.962;9.768;2024-01-06T14:51:22;3.53;;;2.35;;
38779;SDS011;29273;49.962;9.768;2024-01-06T14:53:48;2.85;;;2.17;;
38779;SDS011;29273;49.962;9.768;2024-01-06T14:56:13;3.00;;;2.05;;